sensor_id;sensor_type;location;lat;lon;timestamp;pressure;altitude;pressure_sealevel;temperature;humidity
35226;BME280;21813;49.686;21.766;2023-02-26T02:39:38;97153.25;;;1.44;100.00
35226;BME280;21813;49.686;21.766;2023-02-26T03:37:29;97242.06;;;1.05;100.00
35226;BME280;21813;49.686;21.766;2023-02-26T04:36:49;97272.56;;;0.96;100.00
35226;BME280;21813;49.686;21.766;2023-02-26T05:23:16;97329.78;;;0.82;100.00
35226;BME280;21813;49.686;21.766;2023-02-26T05:25:42;97355.06;;;0.88;100.00
35226;BME280;21813;49.686;21.766;2023-02-26T06:19:37;97464.13;;;0.79;100.00
35226;BME280;21813;49.686;21.766;2023-02-26T06:22:05;97458.34;;;0.76;100.00
35226;BME280;21813;49.686;21.766;2023-02-26T06:24:33;97466.94;;;0.75;100.00
35226;BME280;21813;49.686;21.766;2023-02-26T06:27:22;97463.66;;;0.73;100.00
35226;BME280;21813;49.686;21.766;2023-02-26T06:33:01;97487.66;;;0.72;100.00
35226;BME280;21813;49.686;21.766;2023-02-26T06:35:27;97501.06;;;0.77;100.00
35226;BME280;21813;49.686;21.766;2023-02-26T06:38:19;97498.91;;;0.69;100.00
35226;BME280;21813;49.686;21.766;2023-02-26T06:41:27;97500.22;;;0.76;100.00
35226;BME280;21813;49.686;21.766;2023-02-26T06:43:54;97489.31;;;0.73;100.00
35226;BME280;21813;49.686;21.766;2023-02-26T06:46:22;97495.75;;;0.80;100.00
35226;BME280;21813;49.686;21.766;2023-02-26T06:48:53;97490.72;;;0.78;100.00
35226;BME280;21813;49.686;21.766;2023-02-26T06:51:22;97492.09;;;0.84;100.00
35226;BME280;21813;49.686;21.766;2023-02-26T06:53:48;97483.50;;;0.85;100.00
35226;BME280;21813;49.686;21.766;2023-02-26T06:56:14;97490.47;;;0.83;100.00
35226;BME280;21813;49.686;21.766;2023-02-26T06:58:40;97497.41;;;0.81;100.00
35226;BME280;21813;49.686;21.766;2023-02-26T07:01:07;97508.31;;;0.84;100.00
35226;BME280;21813;49.686;21.766;2023-02-26T07:03:34;97505.94;;;0.81;100.00
35226;BME280;21813;49.686;21.766;2023-02-26T07:06:00;97510.97;;;0.83;100.00
35226;BME280;21813;49.686;21.766;2023-02-26T07:34:19;97539.91;;;0.85;100.00
35226;BME280;21813;49.686;21.766;2023-02-26T07:36:46;97546.72;;;0.86;100.00
35226;BME280;21813;49.686;21.766;2023-02-26T07:39:11;97549.34;;;0.84;100.00
35226;BME280;21813;49.686;21.766;2023-02-26T07:41:37;97553.66;;;0.84;100.00
35226;BME280;21813;49.686;21.766;2023-02-26T07:59:48;97616.88;;;0.85;100.00
35226;BME280;21813;49.686;21.766;2023-02-26T08:02:14;97628.03;;;0.84;100.00
35226;BME280;21813;49.686;21.766;2023-02-26T08:04:39;97633.91;;;0.86;100.00
35226;BME280;21813;49.686;21.766;2023-02-26T08:07:07;97637.38;;;0.85;100.00
35226;BME280;21813;49.686;21.766;2023-02-26T08:09:32;97640.72;;;0.87;100.00
35226;BME280;21813;49.686;21.766;2023-02-26T08:11:58;97644.19;;;0.86;100.00
35226;BME280;21813;49.686;21.766;2023-02-26T08:14:27;97639.06;;;0.86;100.00
35226;BME280;21813;49.686;21.766;2023-02-26T08:16:54;97638.22;;;0.85;100.00
35226;BME280;21813;49.686;21.766;2023-02-26T08:19:21;97638.28;;;0.84;100.00
35226;BME280;21813;49.686;21.766;2023-02-26T08:21:47;97641.44;;;0.89;100.00
35226;BME280;21813;49.686;21.766;2023-02-26T08:24:12;97637.22;;;0.88;100.00
35226;BME280;21813;49.686;21.766;2023-02-26T08:26:41;97652.47;;;0.91;100.00
35226;BME280;21813;49.686;21.766;2023-02-26T08:29:06;97659.41;;;0.89;100.00
35226;BME280;21813;49.686;21.766;2023-02-26T08:31:33;97663.03;;;0.85;100.00
35226;BME280;21813;49.686;21.766;2023-02-26T08:34:22;97675.69;;;0.88;100.00
35226;BME280;21813;49.686;21.766;2023-02-26T08:37:13;97669.06;;;0.84;100.00
35226;BME280;21813;49.686;21.766;2023-02-26T08:39:39;97665.66;;;0.83;99.78
35226;BME280;21813;49.686;21.766;2023-02-26T08:42:10;97671.56;;;0.85;100.00
35226;BME280;21813;49.686;21.766;2023-02-26T08:44:36;97664.88;;;0.83;100.00
35226;BME280;21813;49.686;21.766;2023-02-26T08:47:03;97669.66;;;0.89;100.00
35226;BME280;21813;49.686;21.766;2023-02-26T08:49:31;97680.44;;;0.96;99.29
35226;BME280;21813;49.686;21.766;2023-02-26T08:51:57;97674.31;;;0.98;98.48
35226;BME280;21813;49.686;21.766;2023-02-26T08:54:23;97684.44;;;1.01;98.54
35226;BME280;21813;49.686;21.766;2023-02-26T08:56:55;97677.81;;;0.97;99.11
35226;BME280;21813;49.686;21.766;2023-02-26T08:59:25;97690.38;;;1.02;99.85
35226;BME280;21813;49.686;21.766;2023-02-26T09:01:51;97703.78;;;1.07;99.83
35226;BME280;21813;49.686;21.766;2023-02-26T09:04:17;97701.81;;;1.12;99.80
35226;BME280;21813;49.686;21.766;2023-02-26T09:06:43;97706.44;;;1.21;99.56
35226;BME280;21813;49.686;21.766;2023-02-26T09:09:09;97708.78;;;1.25;98.54
35226;BME280;21813;49.686;21.766;2023-02-26T09:11:35;97696.69;;;1.27;97.28
35226;BME280;21813;49.686;21.766;2023-02-26T09:14:02;97707.56;;;1.32;96.23
35226;BME280;21813;49.686;21.766;2023-02-26T09:16:28;97706.72;;;1.32;94.79
35226;BME280;21813;49.686;21.766;2023-02-26T09:18:55;97718.72;;;1.31;96.26
35226;BME280;21813;49.686;21.766;2023-02-26T09:21:21;97711.78;;;1.33;96.57
35226;BME280;21813;49.686;21.766;2023-02-26T09:26:58;97720.78;;;1.41;92.58
35226;BME280;21813;49.686;21.766;2023-02-26T09:29:25;97722.38;;;1.43;93.51
35226;BME280;21813;49.686;21.766;2023-02-26T09:31:51;97734.03;;;1.49;94.36
35226;BME280;21813;49.686;21.766;2023-02-26T09:34:17;97726.19;;;1.52;93.66
35226;BME280;21813;49.686;21.766;2023-02-26T09:36:43;97719.22;;;1.54;93.31
35226;BME280;21813;49.686;21.766;2023-02-26T09:39:09;97728.41;;;1.58;92.23
35226;BME280;21813;49.686;21.766;2023-02-26T09:41:39;97741.13;;;1.61;92.29
35226;BME280;21813;49.686;21.766;2023-02-26T09:44:19;97738.53;;;1.61;91.69
35226;BME280;21813;49.686;21.766;2023-02-26T09:51:38;97749.22;;;1.69;92.59
35226;BME280;21813;49.686;21.766;2023-02-26T09:54:26;97761.81;;;1.73;91.10
35226;BME280;21813;49.686;21.766;2023-02-26T09:56:56;97761.63;;;1.76;91.21
35226;BME280;21813;49.686;21.766;2023-02-26T09:59:23;97760.47;;;1.82;91.23
35226;BME280;21813;49.686;21.766;2023-02-26T10:02:12;97768.78;;;1.87;90.60
35226;BME280;21813;49.686;21.766;2023-02-26T10:05:03;97773.59;;;1.93;88.64
35226;BME280;21813;49.686;21.766;2023-02-26T10:07:43;97771.09;;;1.92;86.60
35226;BME280;21813;49.686;21.766;2023-02-26T10:10:18;97776.47;;;1.87;84.87
35226;BME280;21813;49.686;21.766;2023-02-26T10:12:46;97778.72;;;1.77;83.04
35226;BME280;21813;49.686;21.766;2023-02-26T10:15:19;97775.25;;;1.78;85.31
35226;BME280;21813;49.686;21.766;2023-02-26T10:18:11;97776.56;;;1.86;82.79
35226;BME280;21813;49.686;21.766;2023-02-26T10:23:16;97777.66;;;1.97;83.30
35226;BME280;21813;49.686;21.766;2023-02-26T10:26:04;97779.06;;;2.03;81.23
35226;BME280;21813;49.686;21.766;2023-02-26T10:28:46;97783.84;;;2.09;80.08
35226;BME280;21813;49.686;21.766;2023-02-26T10:34:03;97788.97;;;2.25;79.83
35226;BME280;21813;49.686;21.766;2023-02-26T10:42:24;97806.50;;;2.48;73.26
35226;BME280;21813;49.686;21.766;2023-02-26T10:51:17;97810.94;;;2.60;72.32
35226;BME280;21813;49.686;21.766;2023-02-26T10:53:48;97807.28;;;2.64;70.48
35226;BME280;21813;49.686;21.766;2023-02-26T10:56:30;97810.25;;;2.72;70.46
35226;BME280;21813;49.686;21.766;2023-02-26T10:58:56;97816.16;;;2.88;72.54
35226;BME280;21813;49.686;21.766;2023-02-26T11:01:24;97807.31;;;3.08;73.14
35226;BME280;21813;49.686;21.766;2023-02-26T11:04:15;97819.38;;;3.22;69.24
35226;BME280;21813;49.686;21.766;2023-02-26T11:06:47;97825.41;;;3.21;68.31
35226;BME280;21813;49.686;21.766;2023-02-26T11:09:18;97815.88;;;3.23;68.32
35226;BME280;21813;49.686;21.766;2023-02-26T11:14:13;97827.53;;;3.14;67.69
35226;BME280;21813;49.686;21.766;2023-02-26T11:17:01;97827.06;;;3.07;69.16
35226;BME280;21813;49.686;21.766;2023-02-26T11:19:32;97833.22;;;3.05;70.46
35226;BME280;21813;49.686;21.766;2023-02-26T11:22:01;97842.84;;;3.01;71.92
35226;BME280;21813;49.686;21.766;2023-02-26T11:24:36;97839.72;;;2.96;75.10
35226;BME280;21813;49.686;21.766;2023-02-26T11:27:13;97844.56;;;2.87;74.83
35226;BME280;21813;49.686;21.766;2023-02-26T11:29:42;97850.91;;;2.81;75.87
35226;BME280;21813;49.686;21.766;2023-02-26T11:32:21;97843.59;;;2.74;77.33
35226;BME280;21813;49.686;21.766;2023-02-26T11:34:49;97850.69;;;2.70;78.69
35226;BME280;21813;49.686;21.766;2023-02-26T11:37:19;97844.97;;;2.65;78.29
35226;BME280;21813;49.686;21.766;2023-02-26T11:39:45;97851.78;;;2.66;79.60
35226;BME280;21813;49.686;21.766;2023-02-26T11:42:11;97856.72;;;2.69;80.25
35226;BME280;21813;49.686;21.766;2023-02-26T11:44:41;97854.16;;;2.69;78.94
35226;BME280;21813;49.686;21.766;2023-02-26T11:47:14;97860.88;;;2.72;79.30
35226;BME280;21813;49.686;21.766;2023-02-26T11:49:43;97857.41;;;2.73;79.96
35226;BME280;21813;49.686;21.766;2023-02-26T11:58:21;97853.25;;;2.70;79.55
35226;BME280;21813;49.686;21.766;2023-02-26T12:01:03;97862.06;;;2.66;80.29
35226;BME280;21813;49.686;21.766;2023-02-26T12:03:36;97862.97;;;2.65;81.84
35226;BME280;21813;49.686;21.766;2023-02-26T12:06:19;97876.34;;;2.56;81.47
35226;BME280;21813;49.686;21.766;2023-02-26T12:08:50;97886.16;;;2.49;82.34
35226;BME280;21813;49.686;21.766;2023-02-26T12:11:47;97884.91;;;2.41;80.61
35226;BME280;21813;49.686;21.766;2023-02-26T12:14:26;97889.63;;;2.33;80.43
35226;BME280;21813;49.686;21.766;2023-02-26T12:17:07;97896.75;;;2.28;80.65
35226;BME280;21813;49.686;21.766;2023-02-26T12:25:41;97913.69;;;2.32;82.18
35226;BME280;21813;49.686;21.766;2023-02-26T12:32:26;97915.44;;;2.15;81.63
35226;BME280;21813;49.686;21.766;2023-02-26T12:37:56;97932.41;;;2.02;82.49
35226;BME280;21813;49.686;21.766;2023-02-26T12:52:33;97938.81;;;1.78;83.37
35226;BME280;21813;49.686;21.766;2023-02-26T13:07:04;97965.28;;;1.63;87.45
35226;BME280;21813;49.686;21.766;2023-02-26T13:14:49;97971.03;;;1.51;88.18
35226;BME280;21813;49.686;21.766;2023-02-26T13:18:07;97974.69;;;1.47;88.95
35226;BME280;21813;49.686;21.766;2023-02-26T13:20:26;97980.47;;;1.50;89.29
35226;BME280;21813;49.686;21.766;2023-02-26T13:22:57;97977.84;;;1.52;89.03
35226;BME280;21813;49.686;21.766;2023-02-26T13:25:31;97977.97;;;1.49;89.07
35226;BME280;21813;49.686;21.766;2023-02-26T13:28:03;97985.69;;;1.49;89.28
35226;BME280;21813;49.686;21.766;2023-02-26T13:30:39;97981.38;;;1.49;89.63
35226;BME280;21813;49.686;21.766;2023-02-26T13:33:16;97984.63;;;1.53;89.59
35226;BME280;21813;49.686;21.766;2023-02-26T13:35:45;97983.72;;;1.54;88.77
35226;BME280;21813;49.686;21.766;2023-02-26T13:41:18;97981.03;;;1.57;89.85
35226;BME280;21813;49.686;21.766;2023-02-26T13:44:34;97986.16;;;1.57;89.68
35226;BME280;21813;49.686;21.766;2023-02-26T13:52:32;97998.00;;;1.59;88.83
35226;BME280;21813;49.686;21.766;2023-02-26T13:55:03;97996.25;;;1.60;89.17
35226;BME280;21813;49.686;21.766;2023-02-26T13:57:47;98002.97;;;1.62;88.99
35226;BME280;21813;49.686;21.766;2023-02-26T14:00:33;98001.34;;;1.61;89.46
35226;BME280;21813;49.686;21.766;2023-02-26T14:03:29;98005.53;;;1.62;90.34
35226;BME280;21813;49.686;21.766;2023-02-26T14:08:55;98002.16;;;1.62;90.23
35226;BME280;21813;49.686;21.766;2023-02-26T14:14:30;97997.31;;;1.56;91.50
35226;BME280;21813;49.686;21.766;2023-02-26T14:23:17;98017.88;;;1.39;92.56
35226;BME280;21813;49.686;21.766;2023-02-26T14:25:51;98026.47;;;1.38;93.29
35226;BME280;21813;49.686;21.766;2023-02-26T14:31:06;98040.72;;;1.26;94.57
35226;BME280;21813;49.686;21.766;2023-02-26T14:33:39;98052.03;;;1.22;95.51
35226;BME280;21813;49.686;21.766;2023-02-26T14:36:19;98045.75;;;1.10;96.35
35226;BME280;21813;49.686;21.766;2023-02-26T14:38:47;98042.44;;;1.08;96.12
35226;BME280;21813;49.686;21.766;2023-02-26T14:41:28;98051.03;;;1.07;96.53
35226;BME280;21813;49.686;21.766;2023-02-26T14:44:06;98053.53;;;1.09;96.69
35226;BME280;21813;49.686;21.766;2023-02-26T14:46:36;98059.66;;;1.06;96.83
35226;BME280;21813;49.686;21.766;2023-02-26T14:49:03;98058.81;;;1.06;97.15
35226;BME280;21813;49.686;21.766;2023-02-26T14:54:53;98075.94;;;1.05;97.08
35226;BME280;21813;49.686;21.766;2023-02-26T14:57:48;98089.66;;;1.04;97.38
35226;BME280;21813;49.686;21.766;2023-02-26T15:00:25;98083.00;;;1.00;96.54
35226;BME280;21813;49.686;21.766;2023-02-26T15:11:02;98106.16;;;0.80;96.71
35226;BME280;21813;49.686;21.766;2023-02-26T15:24:51;98116.97;;;0.68;97.65
35226;BME280;21813;49.686;21.766;2023-02-26T15:27:18;98118.78;;;0.66;97.85
35226;BME280;21813;49.686;21.766;2023-02-26T15:29:45;98127.25;;;0.68;99.03
35226;BME280;21813;49.686;21.766;2023-02-26T15:34:47;98129.44;;;0.57;99.48
35226;BME280;21813;49.686;21.766;2023-02-26T15:37:24;98139.34;;;0.46;99.21
35226;BME280;21813;49.686;21.766;2023-02-26T15:39:51;98143.00;;;0.40;100.00
35226;BME280;21813;49.686;21.766;2023-02-26T15:42:20;98145.75;;;0.35;100.00
35226;BME280;21813;49.686;21.766;2023-02-26T15:44:47;98158.88;;;0.28;100.00
35226;BME280;21813;49.686;21.766;2023-02-26T15:47:16;98162.53;;;0.22;100.00
35226;BME280;21813;49.686;21.766;2023-02-26T15:49:45;98171.19;;;0.20;100.00
35226;BME280;21813;49.686;21.766;2023-02-26T15:52:17;98177.13;;;0.20;100.00
35226;BME280;21813;49.686;21.766;2023-02-26T15:54:49;98182.31;;;0.19;100.00
35226;BME280;21813;49.686;21.766;2023-02-26T15:57:18;98181.81;;;0.11;100.00
35226;BME280;21813;49.686;21.766;2023-02-26T15:59:47;98195.44;;;0.11;100.00
35226;BME280;21813;49.686;21.766;2023-02-26T16:02:25;98194.81;;;0.06;100.00
35226;BME280;21813;49.686;21.766;2023-02-26T16:04:51;98192.56;;;-0.02;100.00
35226;BME280;21813;49.686;21.766;2023-02-26T16:07:18;98197.78;;;-0.05;100.00
35226;BME280;21813;49.686;21.766;2023-02-26T16:09:46;98204.13;;;-0.13;100.00
35226;BME280;21813;49.686;21.766;2023-02-26T16:12:17;98210.16;;;-0.14;100.00
35226;BME280;21813;49.686;21.766;2023-02-26T16:14:47;98218.59;;;-0.12;100.00
35226;BME280;21813;49.686;21.766;2023-02-26T16:17:26;98227.13;;;-0.12;100.00
35226;BME280;21813;49.686;21.766;2023-02-26T16:19:52;98225.56;;;-0.16;100.00
35226;BME280;21813;49.686;21.766;2023-02-26T16:22:35;98230.88;;;-0.20;100.00
35226;BME280;21813;49.686;21.766;2023-02-26T16:25:07;98229.19;;;-0.21;100.00
35226;BME280;21813;49.686;21.766;2023-02-26T16:27:34;98242.22;;;-0.27;100.00
35226;BME280;21813;49.686;21.766;2023-02-26T16:30:02;98250.00;;;-0.29;100.00
35226;BME280;21813;49.686;21.766;2023-02-26T16:32:32;98241.47;;;-0.29;100.00
35226;BME280;21813;49.686;21.766;2023-02-26T16:35:08;98254.41;;;-0.32;100.00
35226;BME280;21813;49.686;21.766;2023-02-26T16:37:35;98268.09;;;-0.33;100.00
35226;BME280;21813;49.686;21.766;2023-02-26T16:40:15;98266.47;;;-0.36;100.00
35226;BME280;21813;49.686;21.766;2023-02-26T16:48:13;98278.56;;;-0.39;100.00
35226;BME280;21813;49.686;21.766;2023-02-26T16:50:40;98283.66;;;-0.39;100.00
35226;BME280;21813;49.686;21.766;2023-02-26T16:53:11;98295.63;;;-0.40;100.00
35226;BME280;21813;49.686;21.766;2023-02-26T16:55:38;98297.25;;;-0.37;100.00
35226;BME280;21813;49.686;21.766;2023-02-26T16:58:06;98300.72;;;-0.38;100.00
35226;BME280;21813;49.686;21.766;2023-02-26T17:00:37;98297.47;;;-0.43;100.00
35226;BME280;21813;49.686;21.766;2023-02-26T17:03:12;98306.84;;;-0.42;100.00
35226;BME280;21813;49.686;21.766;2023-02-26T17:05:52;98306.03;;;-0.45;100.00
35226;BME280;21813;49.686;21.766;2023-02-26T17:08:20;98309.50;;;-0.46;100.00
35226;BME280;21813;49.686;21.766;2023-02-26T17:10:54;98307.84;;;-0.47;100.00
35226;BME280;21813;49.686;21.766;2023-02-26T17:13:29;98317.34;;;-0.50;100.00
35226;BME280;21813;49.686;21.766;2023-02-26T17:16:04;98321.63;;;-0.51;100.00
35226;BME280;21813;49.686;21.766;2023-02-26T17:18:32;98326.81;;;-0.52;100.00
35226;BME280;21813;49.686;21.766;2023-02-26T17:20:58;98327.69;;;-0.53;100.00
35226;BME280;21813;49.686;21.766;2023-02-26T17:23:31;98328.66;;;-0.56;100.00
35226;BME280;21813;49.686;21.766;2023-02-26T17:25:57;98325.31;;;-0.58;100.00
35226;BME280;21813;49.686;21.766;2023-02-26T17:28:29;98335.53;;;-0.58;100.00
35226;BME280;21813;49.686;21.766;2023-02-26T17:30:56;98332.09;;;-0.57;100.00
35226;BME280;21813;49.686;21.766;2023-02-26T17:33:24;98342.34;;;-0.57;100.00
35226;BME280;21813;49.686;21.766;2023-02-26T17:35:50;98357.53;;;-0.52;100.00
35226;BME280;21813;49.686;21.766;2023-02-26T17:38:18;98350.78;;;-0.55;100.00
35226;BME280;21813;49.686;21.766;2023-02-26T17:40:45;98357.56;;;-0.54;100.00
35226;BME280;21813;49.686;21.766;2023-02-26T17:43:13;98361.84;;;-0.54;100.00
35226;BME280;21813;49.686;21.766;2023-02-26T17:45:39;98364.50;;;-0.56;100.00
35226;BME280;21813;49.686;21.766;2023-02-26T17:48:07;98356.91;;;-0.59;100.00
35226;BME280;21813;49.686;21.766;2023-02-26T17:53:14;98359.38;;;-0.56;100.00
35226;BME280;21813;49.686;21.766;2023-02-26T17:55:54;98355.13;;;-0.57;100.00
35226;BME280;21813;49.686;21.766;2023-02-26T17:58:26;98361.97;;;-0.57;100.00
35226;BME280;21813;49.686;21.766;2023-02-26T18:00:53;98364.50;;;-0.56;100.00
35226;BME280;21813;49.686;21.766;2023-02-26T18:03:19;98372.94;;;-0.54;100.00
35226;BME280;21813;49.686;21.766;2023-02-26T18:05:46;98371.25;;;-0.55;100.00
35226;BME280;21813;49.686;21.766;2023-02-26T18:08:30;98372.94;;;-0.54;100.00
35226;BME280;21813;49.686;21.766;2023-02-26T18:10:58;98374.56;;;-0.51;100.00
35226;BME280;21813;49.686;21.766;2023-02-26T18:13:24;98378.06;;;-0.54;100.00
35226;BME280;21813;49.686;21.766;2023-02-26T18:15:51;98376.38;;;-0.55;100.00
35226;BME280;21813;49.686;21.766;2023-02-26T18:18:20;98386.63;;;-0.55;100.00
35226;BME280;21813;49.686;21.766;2023-02-26T18:20:46;98387.53;;;-0.56;100.00
35226;BME280;21813;49.686;21.766;2023-02-26T18:23:13;98387.53;;;-0.56;100.00
35226;BME280;21813;49.686;21.766;2023-02-26T18:25:42;98395.28;;;-0.59;100.00
35226;BME280;21813;49.686;21.766;2023-02-26T18:28:26;98386.84;;;-0.61;100.00
35226;BME280;21813;49.686;21.766;2023-02-26T18:30:53;98380.16;;;-0.65;100.00
35226;BME280;21813;49.686;21.766;2023-02-26T18:33:20;98380.25;;;-0.68;100.00
35226;BME280;21813;49.686;21.766;2023-02-26T18:35:54;98395.53;;;-0.65;100.00
35226;BME280;21813;49.686;21.766;2023-02-26T18:38:27;98384.69;;;-0.73;100.00
35226;BME280;21813;49.686;21.766;2023-02-26T18:40:53;98392.16;;;-0.67;100.00
35226;BME280;21813;49.686;21.766;2023-02-26T18:43:20;98385.38;;;-0.68;100.00
35226;BME280;21813;49.686;21.766;2023-02-26T18:45:48;98387.16;;;-0.70;100.00
35226;BME280;21813;49.686;21.766;2023-02-26T18:48:17;98387.16;;;-0.70;100.00
35226;BME280;21813;49.686;21.766;2023-02-26T18:50:45;98376.25;;;-0.75;100.00
35226;BME280;21813;49.686;21.766;2023-02-26T18:53:12;98389.88;;;-0.74;100.00
35226;BME280;21813;49.686;21.766;2023-02-26T18:55:37;98392.53;;;-0.77;100.00
35226;BME280;21813;49.686;21.766;2023-02-26T18:58:03;98396.81;;;-0.78;100.00
35226;BME280;21813;49.686;21.766;2023-02-26T19:00:30;98397.72;;;-0.79;100.00
35226;BME280;21813;49.686;21.766;2023-02-26T19:02:56;98419.94;;;-0.81;100.00
35226;BME280;21813;49.686;21.766;2023-02-26T19:05:22;98419.16;;;-0.83;100.00
35226;BME280;21813;49.686;21.766;2023-02-26T19:07:50;98423.34;;;-0.80;100.00
35226;BME280;21813;49.686;21.766;2023-02-26T19:10:17;98417.38;;;-0.81;100.00
35226;BME280;21813;49.686;21.766;2023-02-26T19:12:43;98422.53;;;-0.82;100.00
35226;BME280;21813;49.686;21.766;2023-02-26T19:15:11;98422.63;;;-0.84;100.00
35226;BME280;21813;49.686;21.766;2023-02-26T19:17:39;98420.94;;;-0.85;100.00
35226;BME280;21813;49.686;21.766;2023-02-26T19:20:05;98428.72;;;-0.88;100.00
35226;BME280;21813;49.686;21.766;2023-02-26T19:22:33;98423.69;;;-0.91;100.00
35226;BME280;21813;49.686;21.766;2023-02-26T19:24:59;98427.94;;;-0.90;100.00
35226;BME280;21813;49.686;21.766;2023-02-26T19:27:25;98437.28;;;-0.89;100.00
35226;BME280;21813;49.686;21.766;2023-02-26T19:29:51;98434.75;;;-0.91;100.00
35226;BME280;21813;49.686;21.766;2023-02-26T19:32:17;98438.97;;;-0.88;100.00
35226;BME280;21813;49.686;21.766;2023-02-26T19:34:42;98453.41;;;-0.87;100.00
35226;BME280;21813;49.686;21.766;2023-02-26T19:37:08;98452.63;;;-0.89;100.00
35226;BME280;21813;49.686;21.766;2023-02-26T19:39:35;98452.66;;;-0.91;100.00
35226;BME280;21813;49.686;21.766;2023-02-26T19:42:02;98466.31;;;-0.90;96.41
35226;BME280;21813;49.686;21.766;2023-02-26T19:44:28;98469.75;;;-0.91;96.86
35226;BME280;21813;49.686;21.766;2023-02-26T19:46:57;98467.25;;;-0.93;97.60
35226;BME280;21813;49.686;21.766;2023-02-26T19:49:24;98474.09;;;-0.93;95.71
35226;BME280;21813;49.686;21.766;2023-02-26T19:51:50;98471.59;;;-0.96;95.09
35226;BME280;21813;49.686;21.766;2023-02-26T19:54:16;98480.19;;;-0.97;96.22
35226;BME280;21813;49.686;21.766;2023-02-26T19:56:43;98469.97;;;-0.97;95.29
35226;BME280;21813;49.686;21.766;2023-02-26T19:59:09;98465.75;;;-1.00;96.07
35226;BME280;21813;49.686;21.766;2023-02-26T20:01:35;98467.63;;;-1.05;95.92
35226;BME280;21813;49.686;21.766;2023-02-26T20:04:01;98459.91;;;-1.03;96.38
35226;BME280;21813;49.686;21.766;2023-02-26T20:06:28;98456.56;;;-1.05;95.54
35226;BME280;21813;49.686;21.766;2023-02-26T20:08:54;98458.34;;;-1.07;96.78
35226;BME280;21813;49.686;21.766;2023-02-26T20:11:20;98454.06;;;-1.07;97.17
35226;BME280;21813;49.686;21.766;2023-02-26T20:13:46;98453.25;;;-1.09;97.38
35226;BME280;21813;49.686;21.766;2023-02-26T20:16:13;98465.94;;;-1.06;97.93
35226;BME280;21813;49.686;21.766;2023-02-26T20:18:40;98466.78;;;-1.05;96.39
35226;BME280;21813;49.686;21.766;2023-02-26T20:21:08;98465.22;;;-1.09;94.78
35226;BME280;21813;49.686;21.766;2023-02-26T20:23:36;98459.38;;;-1.13;95.63
35226;BME280;21813;49.686;21.766;2023-02-26T20:26:10;98485.66;;;-1.09;95.56
35226;BME280;21813;49.686;21.766;2023-02-26T20:28:36;98479.78;;;-1.11;94.98
35226;BME280;21813;49.686;21.766;2023-02-26T20:31:04;98463.75;;;-1.16;93.24
35226;BME280;21813;49.686;21.766;2023-02-26T20:33:30;98474.88;;;-1.19;93.19
35226;BME280;21813;49.686;21.766;2023-02-26T20:36:01;98484.97;;;-1.14;93.67
35226;BME280;21813;49.686;21.766;2023-02-26T20:38:27;98486.84;;;-1.19;93.78
35226;BME280;21813;49.686;21.766;2023-02-26T20:41:01;98484.28;;;-1.19;93.44
35226;BME280;21813;49.686;21.766;2023-02-26T20:43:36;98489.38;;;-1.19;92.89
35226;BME280;21813;49.686;21.766;2023-02-26T20:46:48;98497.97;;;-1.20;93.18
35226;BME280;21813;49.686;21.766;2023-02-26T20:49:49;98502.28;;;-1.22;93.79
35226;BME280;21813;49.686;21.766;2023-02-26T20:52:35;98504.94;;;-1.25;93.53
35226;BME280;21813;49.686;21.766;2023-02-26T20:55:06;98510.81;;;-1.23;93.05
35226;BME280;21813;49.686;21.766;2023-02-26T20:57:40;98508.28;;;-1.23;90.55
35226;BME280;21813;49.686;21.766;2023-02-26T21:00:32;98507.50;;;-1.25;91.10
35226;BME280;21813;49.686;21.766;2023-02-26T21:03:16;98504.28;;;-1.32;90.94
35226;BME280;21813;49.686;21.766;2023-02-26T21:06:07;98520.34;;;-1.28;90.67
35226;BME280;21813;49.686;21.766;2023-02-26T21:08:57;98510.19;;;-1.30;90.02
35226;BME280;21813;49.686;21.766;2023-02-26T21:11:27;98522.84;;;-1.25;90.82
35226;BME280;21813;49.686;21.766;2023-02-26T21:14:11;98515.34;;;-1.31;89.33
35226;BME280;21813;49.686;21.766;2023-02-26T21:16:43;98518.00;;;-1.35;88.68
35226;BME280;21813;49.686;21.766;2023-02-26T21:20:06;98530.69;;;-1.31;89.44
35226;BME280;21813;49.686;21.766;2023-02-26T21:26:12;98519.75;;;-1.37;89.64
35226;BME280;21813;49.686;21.766;2023-02-26T21:28:59;98526.63;;;-1.39;89.66
35226;BME280;21813;49.686;21.766;2023-02-26T21:31:51;98533.41;;;-1.38;89.66
35226;BME280;21813;49.686;21.766;2023-02-26T21:34:26;98542.63;;;-1.32;89.92
35226;BME280;21813;49.686;21.766;2023-02-26T21:36:59;98534.25;;;-1.37;90.25
35226;BME280;21813;49.686;21.766;2023-02-26T21:39:25;98539.41;;;-1.39;90.31
35226;BME280;21813;49.686;21.766;2023-02-26T21:41:52;98538.44;;;-1.35;90.58
35226;BME280;21813;49.686;21.766;2023-02-26T21:44:18;98534.91;;;-1.30;90.44
35226;BME280;21813;49.686;21.766;2023-02-26T21:46:47;98530.69;;;-1.31;90.66
35226;BME280;21813;49.686;21.766;2023-02-26T21:49:13;98538.44;;;-1.35;90.74
35226;BME280;21813;49.686;21.766;2023-02-26T21:51:41;98540.88;;;-1.30;90.67
35226;BME280;21813;49.686;21.766;2023-02-26T21:54:06;98544.28;;;-1.29;90.67
35226;BME280;21813;49.686;21.766;2023-02-26T21:56:34;98547.69;;;-1.30;90.22
35226;BME280;21813;49.686;21.766;2023-02-26T21:59:00;98538.44;;;-1.35;89.91
35226;BME280;21813;49.686;21.766;2023-02-26T22:01:26;98551.13;;;-1.31;89.41
35226;BME280;21813;49.686;21.766;2023-02-26T22:03:51;98561.47;;;-1.35;89.54
35226;BME280;21813;49.686;21.766;2023-02-26T22:06:18;98547.03;;;-1.37;89.71
35226;BME280;21813;49.686;21.766;2023-02-26T22:08:43;98555.56;;;-1.38;90.70
35226;BME280;21813;49.686;21.766;2023-02-26T22:11:09;98554.72;;;-1.39;90.76
35226;BME280;21813;49.686;21.766;2023-02-26T22:13:35;98568.50;;;-1.43;91.17
35226;BME280;21813;49.686;21.766;2023-02-26T22:16:02;98567.72;;;-1.45;91.68
35226;BME280;21813;49.686;21.766;2023-02-26T22:18:28;98572.81;;;-1.45;92.08
35226;BME280;21813;49.686;21.766;2023-02-26T22:20:55;98577.22;;;-1.50;91.31